Maple Valley, WA

1:31 PM PDT on September 20, 2014 (GMT -0700)
SE 238th Street | Change Station
CLOSE
Current Station
Personal Weather Station
Location: Maple Valley, WA
Elevation: 459 ft
Nearby Weather Stations

Elev 459 ft 47.39 °N, 122.01 °W | Updated 3 seconds ago

Clear
Clear
71.8 °F
Feels Like 75 °F
N
0.0
Wind Variable Wind from SE
Gusts 2.0 mph

Today
High -- | Low -- °F
--% Chance of Precip.
Yesterday
High -- | Low -- °F
Precip. -- in
6:52 AM 7:09 PM
Waning Crescent, 10% visible
Pressure 30.05 in
Visibility 10.0 miles
Clouds Clear
Heat Index 75 °F
Dew Point 60 °F
Humidity 67%
Rainfall 0.00 in
Snow Depth 0 in , 1 in , 0 in
UV 6 out of 12
Pollen 2.20 out of 12
PM2.5 Good
Flu Activity Not available.
METAR KRNT 201953Z 31011KT 10SM CLR 20/16 A3003 RMK AO2 SLP174 T02000156

More Conditions Fewer Conditions

Pressure 30.05 in
Visibility 10.0 miles
Clouds Clear
Heat Index 75 °F
Dew Point 60 °F
Humidity 67%
Rainfall 0.00 in
Snow Depth 0 in , 1 in , 0 in
UV 6 out of 12
Pollen 2.20 out of 12
PM2.5 Good
Flu Activity Not available.
METAR KRNT 201953Z 31011KT 10SM CLR 20/16 A3003 RMK AO2 SLP174 T02000156

More Conditions Fewer Conditions

10-Day Weather Forecast

Almanac

Astronomy

Sep. 20, 2014 Rise Set
Actual Time 6:52 AM PDT 7:09 PM PDT
Civil Twilight 6:21 AM PDT 7:40 PM PDT
Nautical Twilight 5:45 AM PDT 8:16 PM PDT
Astronomical Twilight 5:07 AM PDT 8:53 PM PDT
Moon 3:25 AM PDT 5:24 PM PDT
Length of Visible Light 13h 18m
Length of Day
12h 17m
Tomorrow will be 3m 22s shorter.
Waning Crescent, 10% of the Moon is Illuminated
Today
Waning Crescent
Sep 24
New
Oct 1
First Quarter
Oct 8
Full
Oct 15
Last Quarter

Today's Extremes

State Highs State Lows

Community

WunderPhotos

Upload Photos

1,754,937 photos uploaded!

WunderBlogs® & News

Nearby

Air Quality

  Air Quality AQ Index Pollutant
Yesterday Good
PM2.5
Yesterday Good
OZONE
Current Good
PM2.5
Saturday Good
PM2.5
Saturday Good
OZONE
Sunday Good
PM2.5
Sunday Good
OZONE
Monday Good
OZONE
Monday Good
PM2.5
Tuesday Good
OZONE
Tuesday Good
PM2.5

Snow Depth

Station Depth Elevation
Moses Mountain 0 in 5300 ft
Surprise Lakes 0 in 4250 ft
Stevens Pass 0 in 4070 ft
Sentinel Butte 1 in 4920 ft
Quartz Peak 0 in 4700 ft

Earthquake Activity

City Distance Mag. Time & Date
Seabeck, Washington 47 miles 4.0 3:06 AM PDT
2014-09-17
Minimum magnitude displayed is 2.5.

Coastal Water Temperatures

Place Temperature
Port Townsend, WA 53.1 °F
Seattle, WA 55.9 °F
Friday Harbor, WA 52.0 °F
Tacoma, WA 55.9 °F

Nearby Weather Stations